メインページ
METAR-TAF:

METAR-TAF

空港 :

ドバイ, アラブ首長国連邦

ドバイ国際空港

緯度: 25-15-10N, 経度: 055-21-52E, 海抜: 8m

現時点の気象観測

当レポートは51分前の11:00(UTC)に作成
北西の風 12kt、西/北西からの間で変化する
気温 37°C
湿度 37%
気圧 1006 hPa
視程10km以上
1,500メートル以下は雲なし、積乱雲なし

METAR: OMDB 241100Z 32012KT 290V350 CAVOK 37/20 Q1006 NOSIG

時間: 15:51 (11:51 UTC)

予報

当レポートは50分前の11:01(UTC)に作成
予報は24日の 12時(UTC)から 25日の 18時(UTC)まで有効
北西の風 12kt
視程10km以上
1,500メートル以下は雲なし、積乱雲なし
24日の 15時(UTC)から 24日の 17時(UTC)まで徐々に
南/南東の風 5kt
25日の 07時(UTC)から 25日の 09時(UTC)まで徐々に
西の風 15kt
25日の 15時(UTC)から 25日の 17時(UTC)まで徐々に
南/南西の風 5kt

TAF: OMDB 241101Z 2412/2518 32012KT CAVOK BECMG 2415/2417 16005KT BECMG 2507/2509 27015KT BECMG 2515/2517 20005KT

4,000以上の空港の気象観測と天気予報(METAR報とTAF報)

利用可能な観測所は地図上に黄色い丸と赤い丸で示す。

丸の上にカーソルを重ねると観測所名を参照できる。

次にクリックすると気象観測と天気予報を参照できる。

マップの切り替え:黒色「×」印の緑ボタンをクリックして拡大、「-」印の緑ボタンをクリックして縮小、緑色の三角印をクリックして隣りの地図に切り替え


METAR-TAF: